sensor_id;sensor_type;location;lat;lon;timestamp;pressure;altitude;pressure_sealevel;temperature;humidity
17025;BME280;8629;42.496;25.620;2024-03-23T00:55:19;96537.03;;;3.90;58.17
17025;BME280;8629;42.496;25.620;2024-03-23T00:57:46;96546.53;;;4.13;58.08
17025;BME280;8629;42.496;25.620;2024-03-23T01:00:15;96531.53;;;4.13;57.36
17025;BME280;8629;42.496;25.620;2024-03-23T01:02:42;96517.72;;;4.06;58.03
17025;BME280;8629;42.496;25.620;2024-03-23T01:05:08;96544.75;;;4.19;57.98
17025;BME280;8629;42.496;25.620;2024-03-23T01:07:37;96541.03;;;4.14;58.35
17025;BME280;8629;42.496;25.620;2024-03-23T01:10:03;96535.63;;;4.26;57.50
17025;BME280;8629;42.496;25.620;2024-03-23T01:12:35;96484.81;;;3.82;58.33
17025;BME280;8629;42.496;25.620;2024-03-23T01:15:01;96520.69;;;3.88;58.36
17025;BME280;8629;42.496;25.620;2024-03-23T01:17:28;96493.28;;;3.84;58.58
17025;BME280;8629;42.496;25.620;2024-03-23T01:19:55;96534.91;;;4.09;58.40
17025;BME280;8629;42.496;25.620;2024-03-23T01:22:24;96508.25;;;3.61;59.74
17025;BME280;8629;42.496;25.620;2024-03-23T01:25:02;96518.03;;;3.66;59.68
17025;BME280;8629;42.496;25.620;2024-03-23T01:27:35;96532.34;;;3.92;58.89
17025;BME280;8629;42.496;25.620;2024-03-23T01:30:02;96540.91;;;4.04;58.22
17025;BME280;8629;42.496;25.620;2024-03-23T01:32:29;96528.22;;;4.01;58.17
17025;BME280;8629;42.496;25.620;2024-03-23T01:34:55;96513.59;;;3.88;58.72
17025;BME280;8629;42.496;25.620;2024-03-23T01:37:22;96530.78;;;3.74;59.15
17025;BME280;8629;42.496;25.620;2024-03-23T01:39:49;96467.44;;;3.20;60.52
17025;BME280;8629;42.496;25.620;2024-03-23T01:42:16;96517.84;;;3.51;60.40
17025;BME280;8629;42.496;25.620;2024-03-23T01:44:49;96456.38;;;3.18;59.97
17025;BME280;8629;42.496;25.620;2024-03-23T01:47:18;96484.84;;;3.43;59.90
17025;BME280;8629;42.496;25.620;2024-03-23T01:49:46;96521.13;;;3.80;59.08
17025;BME280;8629;42.496;25.620;2024-03-23T01:52:28;96516.47;;;3.65;59.63
17025;BME280;8629;42.496;25.620;2024-03-23T01:54:59;96511.25;;;3.70;59.22
17025;BME280;8629;42.496;25.620;2024-03-23T01:57:30;96490.78;;;3.55;59.45
17025;BME280;8629;42.496;25.620;2024-03-23T02:00:05;96526.06;;;3.76;59.36
17025;BME280;8629;42.496;25.620;2024-03-23T02:02:48;96491.53;;;3.51;59.68
17025;BME280;8629;42.496;25.620;2024-03-23T02:05:25;96470.47;;;3.12;60.29
17025;BME280;8629;42.496;25.620;2024-03-23T02:08:21;96517.09;;;3.55;59.65
17025;BME280;8629;42.496;25.620;2024-03-23T02:11:02;96484.72;;;3.16;60.90
17025;BME280;8629;42.496;25.620;2024-03-23T02:13:40;96466.03;;;2.96;61.32
17025;BME280;8629;42.496;25.620;2024-03-23T02:16:16;96486.56;;;2.82;61.71
17025;BME280;8629;42.496;25.620;2024-03-23T02:18:48;96509.59;;;3.08;61.22
17025;BME280;8629;42.496;25.620;2024-03-23T02:21:30;96513.09;;;2.97;62.62
17025;BME280;8629;42.496;25.620;2024-03-23T02:24:19;96511.19;;;2.76;62.96
17025;BME280;8629;42.496;25.620;2024-03-23T02:29:57;96501.63;;;3.03;62.77
17025;BME280;8629;42.496;25.620;2024-03-23T02:33:08;96518.59;;;2.96;61.93
17025;BME280;8629;42.496;25.620;2024-03-23T02:35:39;96477.50;;;2.89;62.18
17025;BME280;8629;42.496;25.620;2024-03-23T02:38:28;96500.44;;;2.94;62.54
17025;BME280;8629;42.496;25.620;2024-03-23T02:41:11;96358.31;;;2.11;62.06
17025;BME280;8629;42.496;25.620;2024-03-23T02:44:08;96470.00;;;2.81;62.48
17025;BME280;8629;42.496;25.620;2024-03-23T02:46:56;96522.75;;;3.08;62.25
17025;BME280;8629;42.496;25.620;2024-03-23T02:50:10;96501.94;;;3.24;61.05
17025;BME280;8629;42.496;25.620;2024-03-23T02:52:55;96505.13;;;3.09;62.07
17025;BME280;8629;42.496;25.620;2024-03-23T02:55:57;96497.66;;;3.17;61.36
17025;BME280;8629;42.496;25.620;2024-03-23T02:58:34;96484.19;;;2.63;62.01
17025;BME280;8629;42.496;25.620;2024-03-23T03:01:03;96505.63;;;2.89;62.75
17025;BME280;8629;42.496;25.620;2024-03-23T03:03:34;96472.78;;;2.75;61.82
17025;BME280;8629;42.496;25.620;2024-03-23T03:06:33;96506.09;;;2.86;62.16
17025;BME280;8629;42.496;25.620;2024-03-23T03:09:26;96500.75;;;2.81;62.64
17025;BME280;8629;42.496;25.620;2024-03-23T03:15:43;96497.50;;;2.90;61.94
17025;BME280;8629;42.496;25.620;2024-03-23T03:18:16;96494.53;;;3.04;62.45
17025;BME280;8629;42.496;25.620;2024-03-23T03:20:42;96493.38;;;2.94;62.63
17025;BME280;8629;42.496;25.620;2024-03-23T03:23:10;96497.19;;;2.87;62.77
17025;BME280;8629;42.496;25.620;2024-03-23T03:25:36;96443.97;;;2.63;62.14
17025;BME280;8629;42.496;25.620;2024-03-23T03:28:07;96475.88;;;2.55;62.99
17025;BME280;8629;42.496;25.620;2024-03-23T03:30:34;96439.56;;;2.18;63.90
17025;BME280;8629;42.496;25.620;2024-03-23T03:33:01;96449.53;;;2.04;64.96
17025;BME280;8629;42.496;25.620;2024-03-23T03:35:28;96503.59;;;2.62;63.31
17025;BME280;8629;42.496;25.620;2024-03-23T03:37:55;96481.25;;;2.60;63.24
17025;BME280;8629;42.496;25.620;2024-03-23T03:40:21;96455.84;;;2.49;62.70
17025;BME280;8629;42.496;25.620;2024-03-23T03:42:50;96476.53;;;2.62;62.51
17025;BME280;8629;42.496;25.620;2024-03-23T03:45:18;96462.50;;;2.39;62.95
17025;BME280;8629;42.496;25.620;2024-03-23T03:47:47;96496.19;;;2.59;63.04
17025;BME280;8629;42.496;25.620;2024-03-23T03:50:13;96475.22;;;2.48;62.88
17025;BME280;8629;42.496;25.620;2024-03-23T03:52:40;96470.81;;;2.48;62.61
17025;BME280;8629;42.496;25.620;2024-03-23T03:55:13;96469.19;;;2.47;62.72
17025;BME280;8629;42.496;25.620;2024-03-23T03:57:40;96459.97;;;2.44;62.86
17025;BME280;8629;42.496;25.620;2024-03-23T04:00:10;96470.28;;;2.34;63.37
17025;BME280;8629;42.496;25.620;2024-03-23T04:02:37;96511.94;;;2.59;64.14
17025;BME280;8629;42.496;25.620;2024-03-23T04:05:05;96522.78;;;2.63;63.96
17025;BME280;8629;42.496;25.620;2024-03-23T04:07:33;96504.69;;;2.50;63.78
17025;BME280;8629;42.496;25.620;2024-03-23T04:10:00;96420.50;;;1.94;64.42
17025;BME280;8629;42.496;25.620;2024-03-23T04:12:44;96507.72;;;2.58;64.37
17025;BME280;8629;42.496;25.620;2024-03-23T04:15:13;96522.06;;;2.51;64.21
17025;BME280;8629;42.496;25.620;2024-03-23T04:17:40;96495.63;;;2.57;62.95
17025;BME280;8629;42.496;25.620;2024-03-23T04:20:10;96500.72;;;2.47;63.47
17025;BME280;8629;42.496;25.620;2024-03-23T04:22:42;96510.56;;;2.40;63.39
17025;BME280;8629;42.496;25.620;2024-03-23T04:25:08;96530.88;;;2.16;65.03
17025;BME280;8629;42.496;25.620;2024-03-23T04:27:38;96504.91;;;2.03;65.07
17025;BME280;8629;42.496;25.620;2024-03-23T04:30:06;96488.44;;;2.07;64.03
17025;BME280;8629;42.496;25.620;2024-03-23T04:32:36;96509.88;;;2.44;63.69
17025;BME280;8629;42.496;25.620;2024-03-23T04:35:03;96455.81;;;2.03;64.81
17025;BME280;8629;42.496;25.620;2024-03-23T04:37:36;96465.00;;;2.17;64.22
17025;BME280;8629;42.496;25.620;2024-03-23T04:40:30;96507.56;;;2.48;64.19
17025;BME280;8629;42.496;25.620;2024-03-23T04:43:17;96497.97;;;2.25;64.72
17025;BME280;8629;42.496;25.620;2024-03-23T04:45:47;96512.50;;;2.44;64.40
17025;BME280;8629;42.496;25.620;2024-03-23T04:48:15;96472.22;;;2.10;64.84
17025;BME280;8629;42.496;25.620;2024-03-23T04:50:42;96505.81;;;2.37;65.22
17025;BME280;8629;42.496;25.620;2024-03-23T04:53:13;96527.34;;;2.39;65.77
17025;BME280;8629;42.496;25.620;2024-03-23T04:55:41;96509.63;;;2.46;65.48
17025;BME280;8629;42.496;25.620;2024-03-23T04:58:08;96501.28;;;2.20;64.96
17025;BME280;8629;42.496;25.620;2024-03-23T05:00:34;96515.97;;;2.33;65.69
17025;BME280;8629;42.496;25.620;2024-03-23T05:03:02;96456.28;;;2.29;64.01
17025;BME280;8629;42.496;25.620;2024-03-23T05:05:33;96484.16;;;2.47;63.36
17025;BME280;8629;42.496;25.620;2024-03-23T05:08:03;96529.06;;;2.45;63.69
17025;BME280;8629;42.496;25.620;2024-03-23T05:10:31;96515.78;;;2.23;64.96
17025;BME280;8629;42.496;25.620;2024-03-23T05:12:59;96527.94;;;2.41;65.18
17025;BME280;8629;42.496;25.620;2024-03-23T05:15:25;96513.22;;;2.28;65.81
17025;BME280;8629;42.496;25.620;2024-03-23T05:17:52;96407.25;;;1.89;65.58
17025;BME280;8629;42.496;25.620;2024-03-23T05:20:19;96419.59;;;2.17;64.73
17025;BME280;8629;42.496;25.620;2024-03-23T05:22:49;96436.06;;;2.29;64.11
17025;BME280;8629;42.496;25.620;2024-03-23T05:25:16;96546.72;;;2.95;64.29
17025;BME280;8629;42.496;25.620;2024-03-23T05:27:44;96510.47;;;2.80;64.32
17025;BME280;8629;42.496;25.620;2024-03-23T05:30:12;96543.94;;;3.02;64.54
17025;BME280;8629;42.496;25.620;2024-03-23T05:32:38;96463.97;;;2.81;63.82
17025;BME280;8629;42.496;25.620;2024-03-23T05:35:12;96521.03;;;3.36;63.44
17025;BME280;8629;42.496;25.620;2024-03-23T05:37:45;96518.41;;;3.36;63.67
17025;BME280;8629;42.496;25.620;2024-03-23T05:40:20;96516.88;;;3.40;63.56
17025;BME280;8629;42.496;25.620;2024-03-23T05:42:50;96506.31;;;3.35;63.46
17025;BME280;8629;42.496;25.620;2024-03-23T05:45:19;96517.09;;;3.72;63.04
17025;BME280;8629;42.496;25.620;2024-03-23T05:47:45;96474.47;;;3.53;62.84
17025;BME280;8629;42.496;25.620;2024-03-23T05:50:15;96513.91;;;3.92;63.11
17025;BME280;8629;42.496;25.620;2024-03-23T05:52:45;96487.25;;;3.66;63.23
17025;BME280;8629;42.496;25.620;2024-03-23T05:55:18;96508.06;;;4.12;62.94
17025;BME280;8629;42.496;25.620;2024-03-23T05:57:47;96530.28;;;4.21;62.49
17025;BME280;8629;42.496;25.620;2024-03-23T06:00:16;96510.31;;;4.25;62.34
17025;BME280;8629;42.496;25.620;2024-03-23T06:02:42;96516.13;;;4.49;62.04
17025;BME280;8629;42.496;25.620;2024-03-23T06:05:22;96516.31;;;4.70;60.63
17025;BME280;8629;42.496;25.620;2024-03-23T06:07:52;96475.88;;;4.59;59.59
17025;BME280;8629;42.496;25.620;2024-03-23T06:10:30;96485.16;;;4.66;59.81
17025;BME280;8629;42.496;25.620;2024-03-23T06:13:02;96505.84;;;5.12;58.59
17025;BME280;8629;42.496;25.620;2024-03-23T06:18:26;96519.47;;;5.36;57.43
17025;BME280;8629;42.496;25.620;2024-03-23T06:21:29;96510.88;;;5.61;55.82
17025;BME280;8629;42.496;25.620;2024-03-23T06:24:08;96506.47;;;5.77;54.89
17025;BME280;8629;42.496;25.620;2024-03-23T06:26:44;96473.69;;;5.68;54.30
17025;BME280;8629;42.496;25.620;2024-03-23T06:29:19;96515.84;;;6.00;53.97
17025;BME280;8629;42.496;25.620;2024-03-23T06:31:53;96459.50;;;5.84;53.80
17025;BME280;8629;42.496;25.620;2024-03-23T06:34:21;96509.38;;;6.28;52.57
17025;BME280;8629;42.496;25.620;2024-03-23T06:37:02;96512.81;;;6.38;52.52
17025;BME280;8629;42.496;25.620;2024-03-23T06:39:33;96477.94;;;6.31;52.12
17025;BME280;8629;42.496;25.620;2024-03-23T06:42:08;96498.34;;;6.67;51.22
17025;BME280;8629;42.496;25.620;2024-03-23T06:44:43;96489.34;;;6.73;51.05
17025;BME280;8629;42.496;25.620;2024-03-23T06:47:10;96477.97;;;6.88;49.58
17025;BME280;8629;42.496;25.620;2024-03-23T06:49:37;96516.06;;;7.38;48.82
17025;BME280;8629;42.496;25.620;2024-03-23T06:52:04;96513.66;;;7.51;48.57
17025;BME280;8629;42.496;25.620;2024-03-23T06:54:31;96507.78;;;7.70;47.86
17025;BME280;8629;42.496;25.620;2024-03-23T06:56:56;96502.69;;;7.89;47.79
17025;BME280;8629;42.496;25.620;2024-03-23T06:59:23;96507.69;;;8.05;47.94
17025;BME280;8629;42.496;25.620;2024-03-23T07:01:49;96510.53;;;8.19;46.03
17025;BME280;8629;42.496;25.620;2024-03-23T07:04:19;96485.25;;;8.42;46.43
17025;BME280;8629;42.496;25.620;2024-03-23T07:06:45;96503.16;;;8.66;46.36
17025;BME280;8629;42.496;25.620;2024-03-23T07:09:12;96476.75;;;8.45;46.03
17025;BME280;8629;42.496;25.620;2024-03-23T07:11:38;96506.25;;;9.12;45.12
17025;BME280;8629;42.496;25.620;2024-03-23T07:14:05;96503.06;;;9.15;44.46
17025;BME280;8629;42.496;25.620;2024-03-23T07:16:31;96467.03;;;9.04;44.47
17025;BME280;8629;42.496;25.620;2024-03-23T07:18:58;96503.38;;;9.38;43.72
17025;BME280;8629;42.496;25.620;2024-03-23T07:21:26;96502.00;;;9.69;42.95
17025;BME280;8629;42.496;25.620;2024-03-23T07:23:53;96507.00;;;10.00;42.68
17025;BME280;8629;42.496;25.620;2024-03-23T07:26:18;96482.56;;;10.17;40.24
17025;BME280;8629;42.496;25.620;2024-03-23T07:28:45;96501.19;;;10.60;40.05
17025;BME280;8629;42.496;25.620;2024-03-23T07:31:12;96503.94;;;10.92;39.53
17025;BME280;8629;42.496;25.620;2024-03-23T07:33:42;96499.44;;;10.88;39.93
17025;BME280;8629;42.496;25.620;2024-03-23T07:36:09;96495.94;;;11.25;42.90
17025;BME280;8629;42.496;25.620;2024-03-23T07:38:37;96502.31;;;10.91;44.96
17025;BME280;8629;42.496;25.620;2024-03-23T07:41:04;96497.69;;;11.16;44.07
17025;BME280;8629;42.496;25.620;2024-03-23T07:43:31;96498.22;;;11.32;43.98
17025;BME280;8629;42.496;25.620;2024-03-23T07:45:57;96494.09;;;11.53;43.20
17025;BME280;8629;42.496;25.620;2024-03-23T07:48:24;96474.66;;;11.06;45.15
17025;BME280;8629;42.496;25.620;2024-03-23T07:50:59;96499.34;;;11.44;45.07
17025;BME280;8629;42.496;25.620;2024-03-23T07:53:26;96499.38;;;11.58;42.73
17025;BME280;8629;42.496;25.620;2024-03-23T07:55:56;96492.28;;;11.81;42.70
17025;BME280;8629;42.496;25.620;2024-03-23T07:58:23;96489.41;;;11.78;43.52
17025;BME280;8629;42.496;25.620;2024-03-23T08:00:49;96490.31;;;12.14;41.16
17025;BME280;8629;42.496;25.620;2024-03-23T08:03:16;96487.06;;;12.17;41.97
17025;BME280;8629;42.496;25.620;2024-03-23T08:05:42;96483.53;;;12.08;41.92
17025;BME280;8629;42.496;25.620;2024-03-23T08:08:09;96492.88;;;12.33;43.01
17025;BME280;8629;42.496;25.620;2024-03-23T08:10:35;96484.66;;;13.02;41.08
17025;BME280;8629;42.496;25.620;2024-03-23T08:13:04;96491.25;;;13.05;41.37
17025;BME280;8629;42.496;25.620;2024-03-23T08:15:31;96488.81;;;12.72;42.33
17025;BME280;8629;42.496;25.620;2024-03-23T08:17:59;96490.44;;;12.59;41.33
17025;BME280;8629;42.496;25.620;2024-03-23T08:20:25;96481.16;;;12.57;40.62
17025;BME280;8629;42.496;25.620;2024-03-23T08:22:52;96482.06;;;12.38;41.52
17025;BME280;8629;42.496;25.620;2024-03-23T08:25:18;96486.75;;;12.69;40.81
17025;BME280;8629;42.496;25.620;2024-03-23T08:27:45;96485.47;;;12.66;40.08
17025;BME280;8629;42.496;25.620;2024-03-23T08:30:12;96481.47;;;12.78;40.03
17025;BME280;8629;42.496;25.620;2024-03-23T08:32:39;96479.59;;;12.78;39.74
17025;BME280;8629;42.496;25.620;2024-03-23T08:35:06;96428.19;;;12.72;39.75
17025;BME280;8629;42.496;25.620;2024-03-23T08:37:33;96483.66;;;13.43;38.58
17025;BME280;8629;42.496;25.620;2024-03-23T08:39:59;96472.16;;;13.34;38.99
17025;BME280;8629;42.496;25.620;2024-03-23T08:42:26;96472.75;;;13.31;39.71
17025;BME280;8629;42.496;25.620;2024-03-23T08:44:51;96471.94;;;13.53;40.00
17025;BME280;8629;42.496;25.620;2024-03-23T08:47:20;96436.25;;;13.04;39.86
17025;BME280;8629;42.496;25.620;2024-03-23T08:49:45;96449.94;;;14.13;39.21
17025;BME280;8629;42.496;25.620;2024-03-23T08:52:12;96471.88;;;13.75;39.90
17025;BME280;8629;42.496;25.620;2024-03-23T08:54:38;96462.25;;;14.23;39.22
17025;BME280;8629;42.496;25.620;2024-03-23T08:57:04;96473.34;;;14.56;37.08
17025;BME280;8629;42.496;25.620;2024-03-23T08:59:30;96468.94;;;14.95;37.13
17025;BME280;8629;42.496;25.620;2024-03-23T09:01:57;96453.66;;;14.60;36.71
17025;BME280;8629;42.496;25.620;2024-03-23T09:04:24;96466.59;;;14.76;35.53
17025;BME280;8629;42.496;25.620;2024-03-23T09:06:51;96459.41;;;14.36;35.16
17025;BME280;8629;42.496;25.620;2024-03-23T09:09:17;96460.75;;;14.56;35.84
17025;BME280;8629;42.496;25.620;2024-03-23T09:11:45;96464.38;;;14.95;34.95
17025;BME280;8629;42.496;25.620;2024-03-23T09:14:11;96449.16;;;15.25;35.29
17025;BME280;8629;42.496;25.620;2024-03-23T09:16:37;96457.19;;;15.43;33.66
17025;BME280;8629;42.496;25.620;2024-03-23T09:19:03;96453.59;;;15.30;33.10
17025;BME280;8629;42.496;25.620;2024-03-23T09:21:31;96452.38;;;15.74;32.74
17025;BME280;8629;42.496;25.620;2024-03-23T09:23:57;96442.13;;;14.86;33.90
17025;BME280;8629;42.496;25.620;2024-03-23T09:26:23;96449.41;;;14.85;33.39
17025;BME280;8629;42.496;25.620;2024-03-23T09:28:49;96440.16;;;15.85;32.07
17025;BME280;8629;42.496;25.620;2024-03-23T09:31:16;96436.22;;;16.42;30.00
17025;BME280;8629;42.496;25.620;2024-03-23T09:33:42;96430.50;;;16.23;29.65
17025;BME280;8629;42.496;25.620;2024-03-23T09:36:09;96433.06;;;16.10;29.71
17025;BME280;8629;42.496;25.620;2024-03-23T09:38:36;96427.03;;;15.93;29.54
17025;BME280;8629;42.496;25.620;2024-03-23T09:41:07;96420.63;;;16.06;29.38
17025;BME280;8629;42.496;25.620;2024-03-23T09:43:33;96427.47;;;16.24;27.66
17025;BME280;8629;42.496;25.620;2024-03-23T09:46:01;96409.22;;;15.88;28.77
17025;BME280;8629;42.496;25.620;2024-03-23T09:48:27;96411.78;;;16.05;29.31
17025;BME280;8629;42.496;25.620;2024-03-23T09:50:54;96405.63;;;16.68;29.82
17025;BME280;8629;42.496;25.620;2024-03-23T09:53:20;96401.13;;;16.59;26.69
17025;BME280;8629;42.496;25.620;2024-03-23T09:55:49;96402.13;;;16.55;28.54
17025;BME280;8629;42.496;25.620;2024-03-23T09:58:16;96402.25;;;16.79;27.81
17025;BME280;8629;42.496;25.620;2024-03-23T10:00:43;96362.88;;;16.42;26.93
17025;BME280;8629;42.496;25.620;2024-03-23T10:03:09;96399.47;;;16.67;28.45
17025;BME280;8629;42.496;25.620;2024-03-23T10:05:37;96390.41;;;16.38;26.28
17025;BME280;8629;42.496;25.620;2024-03-23T10:08:17;96381.13;;;16.90;24.27
17025;BME280;8629;42.496;25.620;2024-03-23T10:10:45;96394.44;;;16.66;26.74
17025;BME280;8629;42.496;25.620;2024-03-23T10:13:23;96374.13;;;17.22;26.24
17025;BME280;8629;42.496;25.620;2024-03-23T10:15:55;96371.78;;;16.33;26.46
17025;BME280;8629;42.496;25.620;2024-03-23T10:18:21;96373.16;;;16.39;27.56
17025;BME280;8629;42.496;25.620;2024-03-23T10:21:06;96367.59;;;16.99;27.60
17025;BME280;8629;42.496;25.620;2024-03-23T10:23:32;96369.34;;;17.40;27.05
17025;BME280;8629;42.496;25.620;2024-03-23T10:26:12;96365.53;;;17.53;26.93
17025;BME280;8629;42.496;25.620;2024-03-23T10:28:51;96365.44;;;16.17;26.23
17025;BME280;8629;42.496;25.620;2024-03-23T10:31:18;96342.25;;;16.12;26.57
17025;BME280;8629;42.496;25.620;2024-03-23T10:33:45;96332.22;;;16.01;27.45
17025;BME280;8629;42.496;25.620;2024-03-23T10:36:12;96349.03;;;15.89;28.51
17025;BME280;8629;42.496;25.620;2024-03-23T10:38:39;96348.38;;;15.62;27.33
17025;BME280;8629;42.496;25.620;2024-03-23T10:41:07;96341.25;;;16.17;27.33
17025;BME280;8629;42.496;25.620;2024-03-23T10:43:34;96325.50;;;16.49;27.29
17025;BME280;8629;42.496;25.620;2024-03-23T10:46:02;96343.97;;;16.71;26.47
17025;BME280;8629;42.496;25.620;2024-03-23T10:48:29;96337.06;;;15.86;26.80
17025;BME280;8629;42.496;25.620;2024-03-23T10:50:56;96334.09;;;15.79;28.84
17025;BME280;8629;42.496;25.620;2024-03-23T10:53:25;96286.25;;;16.23;26.04
17025;BME280;8629;42.496;25.620;2024-03-23T10:55:52;96327.59;;;16.64;23.61
17025;BME280;8629;42.496;25.620;2024-03-23T10:58:23;96322.06;;;16.81;25.52
17025;BME280;8629;42.496;25.620;2024-03-23T11:00:50;96282.41;;;16.45;23.49
17025;BME280;8629;42.496;25.620;2024-03-23T11:03:36;96309.13;;;15.58;26.00
17025;BME280;8629;42.496;25.620;2024-03-23T11:06:04;96307.81;;;16.48;25.88
17025;BME280;8629;42.496;25.620;2024-03-23T11:08:31;96305.47;;;16.46;23.85
17025;BME280;8629;42.496;25.620;2024-03-23T11:11:27;96301.66;;;16.47;24.17
17025;BME280;8629;42.496;25.620;2024-03-23T11:13:57;96300.75;;;16.43;22.93
17025;BME280;8629;42.496;25.620;2024-03-23T11:16:25;96302.00;;;16.46;20.81
17025;BME280;8629;42.496;25.620;2024-03-23T11:22:00;96295.81;;;15.91;22.71
17025;BME280;8629;42.496;25.620;2024-03-23T11:24:26;96296.75;;;16.16;23.13
17025;BME280;8629;42.496;25.620;2024-03-23T11:26:52;96285.03;;;16.00;23.28
17025;BME280;8629;42.496;25.620;2024-03-23T11:29:19;96234.66;;;15.76;22.85
17025;BME280;8629;42.496;25.620;2024-03-23T11:31:46;96257.94;;;16.26;21.49
17025;BME280;8629;42.496;25.620;2024-03-23T11:34:15;96212.25;;;15.00;24.23
17025;BME280;8629;42.496;25.620;2024-03-23T11:36:41;96242.78;;;15.67;24.06
17025;BME280;8629;42.496;25.620;2024-03-23T11:39:12;96253.22;;;15.69;23.63
17025;BME280;8629;42.496;25.620;2024-03-23T11:41:48;96258.09;;;15.67;24.94
17025;BME280;8629;42.496;25.620;2024-03-23T11:44:16;96250.50;;;16.44;26.45
17025;BME280;8629;42.496;25.620;2024-03-23T11:46:42;96246.84;;;16.15;25.91
17025;BME280;8629;42.496;25.620;2024-03-23T11:49:21;96225.53;;;16.43;25.78
17025;BME280;8629;42.496;25.620;2024-03-23T11:51:47;96244.31;;;16.31;25.70
17025;BME280;8629;42.496;25.620;2024-03-23T11:54:14;96211.03;;;16.11;24.66
17025;BME280;8629;42.496;25.620;2024-03-23T11:56:40;96234.78;;;15.58;25.12
17025;BME280;8629;42.496;25.620;2024-03-23T11:59:07;96223.41;;;15.82;25.19
17025;BME280;8629;42.496;25.620;2024-03-23T12:01:33;96232.72;;;15.85;26.07
17025;BME280;8629;42.496;25.620;2024-03-23T12:04:00;96224.50;;;16.02;26.24
17025;BME280;8629;42.496;25.620;2024-03-23T12:06:27;96219.59;;;16.37;26.10
17025;BME280;8629;42.496;25.620;2024-03-23T12:09:05;96213.19;;;15.76;26.27
17025;BME280;8629;42.496;25.620;2024-03-23T12:11:31;96210.59;;;15.88;26.06
17025;BME280;8629;42.496;25.620;2024-03-23T12:13:59;96208.22;;;15.86;26.80
17025;BME280;8629;42.496;25.620;2024-03-23T12:16:25;96208.00;;;16.12;27.08
17025;BME280;8629;42.496;25.620;2024-03-23T12:18:53;96201.69;;;15.96;25.88
17025;BME280;8629;42.496;25.620;2024-03-23T12:21:19;96198.66;;;15.98;26.65
17025;BME280;8629;42.496;25.620;2024-03-23T12:23:49;96208.78;;;16.13;25.71
17025;BME280;8629;42.496;25.620;2024-03-23T12:26:15;96195.97;;;15.98;25.90
17025;BME280;8629;42.496;25.620;2024-03-23T12:28:43;96181.50;;;16.11;25.81
17025;BME280;8629;42.496;25.620;2024-03-23T12:31:10;96141.91;;;16.32;26.53
17025;BME280;8629;42.496;25.620;2024-03-23T12:33:37;96188.00;;;17.17;25.78
17025;BME280;8629;42.496;25.620;2024-03-23T12:36:03;96177.88;;;16.52;25.00
17025;BME280;8629;42.496;25.620;2024-03-23T12:38:31;96160.72;;;16.32;25.08
17025;BME280;8629;42.496;25.620;2024-03-23T12:40:58;96176.19;;;15.69;26.27
17025;BME280;8629;42.496;25.620;2024-03-23T12:43:25;96175.53;;;16.05;25.78
17025;BME280;8629;42.496;25.620;2024-03-23T12:45:51;96160.47;;;15.80;27.19
17025;BME280;8629;42.496;25.620;2024-03-23T12:48:18;96171.25;;;16.37;26.46
17025;BME280;8629;42.496;25.620;2024-03-23T12:50:43;96148.03;;;16.08;26.76
17025;BME280;8629;42.496;25.620;2024-03-23T12:53:10;96164.63;;;15.89;25.55
17025;BME280;8629;42.496;25.620;2024-03-23T12:55:36;96157.84;;;15.71;26.67
17025;BME280;8629;42.496;25.620;2024-03-23T12:58:04;96159.41;;;16.38;25.89
17025;BME280;8629;42.496;25.620;2024-03-23T13:00:30;96159.19;;;15.98;25.33
17025;BME280;8629;42.496;25.620;2024-03-23T13:02:57;96154.06;;;15.72;26.84
17025;BME280;8629;42.496;25.620;2024-03-23T13:05:22;96158.75;;;15.96;26.40
17025;BME280;8629;42.496;25.620;2024-03-23T13:07:49;96149.94;;;15.75;26.11
17025;BME280;8629;42.496;25.620;2024-03-23T13:10:15;96152.81;;;16.60;24.91
17025;BME280;8629;42.496;25.620;2024-03-23T13:12:42;96140.09;;;16.12;26.45
17025;BME280;8629;42.496;25.620;2024-03-23T13:15:10;96154.84;;;17.00;25.92
17025;BME280;8629;42.496;25.620;2024-03-23T13:17:36;96143.94;;;16.23;24.73
17025;BME280;8629;42.496;25.620;2024-03-23T13:20:03;96123.41;;;16.06;25.81
17025;BME280;8629;42.496;25.620;2024-03-23T13:22:30;96136.53;;;16.20;25.34
17025;BME280;8629;42.496;25.620;2024-03-23T13:24:56;96142.72;;;15.87;24.65
17025;BME280;8629;42.496;25.620;2024-03-23T13:27:23;96131.41;;;15.82;24.29
17025;BME280;8629;42.496;25.620;2024-03-23T13:29:49;96130.56;;;16.02;23.40
17025;BME280;8629;42.496;25.620;2024-03-23T13:32:17;96127.56;;;16.04;23.68
17025;BME280;8629;42.496;25.620;2024-03-23T13:34:43;96121.34;;;16.49;24.29
17025;BME280;8629;42.496;25.620;2024-03-23T13:37:09;96117.09;;;16.48;24.48
17025;BME280;8629;42.496;25.620;2024-03-23T13:39:35;96099.06;;;16.48;24.94
17025;BME280;8629;42.496;25.620;2024-03-23T13:42:02;96114.97;;;16.66;24.62
17025;BME280;8629;42.496;25.620;2024-03-23T13:44:29;96114.97;;;16.66;25.14
17025;BME280;8629;42.496;25.620;2024-03-23T13:46:55;96113.72;;;16.38;24.68
17025;BME280;8629;42.496;25.620;2024-03-23T13:49:26;96110.34;;;16.29;24.15
17025;BME280;8629;42.496;25.620;2024-03-23T13:51:56;96099.97;;;15.82;24.63
17025;BME280;8629;42.496;25.620;2024-03-23T13:54:23;96107.13;;;15.57;24.69
17025;BME280;8629;42.496;25.620;2024-03-23T13:56:49;96099.94;;;16.03;25.12
17025;BME280;8629;42.496;25.620;2024-03-23T13:59:15;96098.41;;;15.81;25.13
17025;BME280;8629;42.496;25.620;2024-03-23T14:01:42;96096.25;;;16.20;24.72
17025;BME280;8629;42.496;25.620;2024-03-23T14:04:08;96097.19;;;15.91;23.97
17025;BME280;8629;42.496;25.620;2024-03-23T14:06:37;96096.59;;;16.19;24.54
17025;BME280;8629;42.496;25.620;2024-03-23T14:09:04;96092.41;;;15.97;23.85
17025;BME280;8629;42.496;25.620;2024-03-23T14:11:34;96092.91;;;15.78;24.06
17025;BME280;8629;42.496;25.620;2024-03-23T14:13:59;96086.38;;;15.87;24.99
17025;BME280;8629;42.496;25.620;2024-03-23T14:16:26;96083.13;;;15.61;23.40
17025;BME280;8629;42.496;25.620;2024-03-23T14:18:53;96080.56;;;15.64;23.98
17025;BME280;8629;42.496;25.620;2024-03-23T14:21:19;96050.88;;;15.82;24.29
17025;BME280;8629;42.496;25.620;2024-03-23T14:23:47;96062.47;;;16.31;23.46
17025;BME280;8629;42.496;25.620;2024-03-23T14:26:13;96072.97;;;16.12;23.62